createdAt,value
2019-03-28T00:00:44.904Z,85.79
2019-03-28T00:03:13.332Z,85.83
2019-03-28T00:05:41.730Z,86.08
2019-03-28T00:08:12.533Z,86.13
2019-03-28T00:10:40.394Z,86.02
2019-03-28T00:13:08.793Z,85.93
2019-03-28T00:15:37.226Z,86.52
2019-03-28T00:18:05.881Z,86.51
2019-03-28T00:20:35.330Z,86.37
2019-03-28T00:23:08.169Z,85.87
2019-03-28T00:25:36.596Z,85.53
2019-03-28T00:28:04.999Z,85.97
2019-03-28T00:30:33.423Z,86.40
2019-03-28T00:33:01.829Z,86.52
2019-03-28T00:35:30.310Z,86.73
2019-03-28T00:37:58.712Z,86.77
2019-03-28T00:40:27.131Z,86.44
2019-03-28T00:42:55.624Z,86.49
2019-03-28T00:45:24.008Z,87.00
2019-03-28T00:47:52.437Z,87.21
2019-03-28T00:50:20.881Z,87.14
2019-03-28T00:52:49.297Z,87.43
2019-03-28T00:55:17.688Z,87.30
2019-03-28T00:57:46.108Z,87.45
2019-03-28T01:00:15.576Z,87.33
2019-03-28T01:02:43.980Z,87.47
2019-03-28T01:05:12.925Z,87.53
2019-03-28T01:07:41.377Z,87.64
2019-03-28T01:10:10.160Z,87.41
2019-03-28T01:12:38.680Z,87.15
2019-03-28T01:15:07.984Z,87.10
2019-03-28T01:17:36.407Z,87.44
2019-03-28T01:20:06.528Z,87.37
2019-03-28T01:22:34.960Z,87.47
2019-03-28T01:25:03.378Z,87.46
2019-03-28T01:27:31.809Z,87.49
2019-03-28T01:30:00.332Z,87.54
2019-03-28T01:32:28.722Z,87.21
2019-03-28T01:34:57.144Z,86.99
2019-03-28T01:37:25.540Z,86.56
2019-03-28T01:39:53.971Z,86.54
2019-03-28T01:42:22.369Z,86.63
2019-03-28T01:44:50.820Z,86.92
2019-03-28T01:47:19.234Z,87.42
2019-03-28T01:49:47.667Z,87.53
2019-03-28T01:52:16.082Z,87.31
2019-03-28T01:54:44.569Z,87.17
2019-03-28T01:57:13.127Z,87.38
2019-03-28T01:59:41.483Z,87.80
2019-03-28T02:02:09.891Z,87.69
2019-03-28T02:04:38.295Z,87.83
2019-03-28T02:07:06.760Z,87.88
2019-03-28T02:09:35.157Z,87.89
2019-03-28T02:12:03.603Z,87.88
2019-03-28T02:14:32.009Z,87.94
2019-03-28T02:17:00.414Z,88.33
2019-03-28T02:19:28.845Z,88.11
2019-03-28T02:21:57.235Z,87.72
2019-03-28T02:24:26.243Z,87.81
2019-03-28T02:26:54.853Z,87.84
2019-03-28T02:29:23.279Z,88.30
2019-03-28T02:31:51.681Z,88.21
2019-03-28T02:34:20.112Z,88.25
2019-03-28T02:36:48.581Z,88.20
2019-03-28T02:39:16.992Z,87.84
2019-03-28T02:41:45.411Z,88.25
2019-03-28T02:44:13.807Z,88.43
2019-03-28T02:46:42.234Z,88.49
2019-03-28T02:49:10.651Z,88.41
2019-03-28T02:51:39.056Z,88.61
2019-03-28T02:54:07.487Z,88.25
2019-03-28T02:56:35.907Z,88.15
2019-03-28T02:59:04.374Z,88.16
2019-03-28T03:01:32.792Z,88.45
2019-03-28T03:04:01.198Z,88.59
2019-03-28T03:06:29.681Z,88.66
2019-03-28T03:08:58.070Z,88.60
2019-03-28T03:11:26.489Z,88.88
2019-03-28T03:13:54.886Z,88.56
2019-03-28T03:16:23.287Z,88.45
2019-03-28T03:18:51.702Z,88.54
2019-03-28T03:21:20.126Z,88.69
2019-03-28T03:23:48.541Z,88.78
2019-03-28T03:26:16.961Z,88.76
2019-03-28T03:28:45.381Z,88.98
2019-03-28T03:31:20.279Z,88.86
2019-03-28T03:33:43.967Z,88.95
2019-03-28T03:36:12.401Z,88.80
2019-03-28T03:38:40.803Z,88.24
2019-03-28T03:41:09.292Z,88.15
2019-03-28T03:43:37.747Z,88.03
2019-03-28T03:46:06.223Z,88.21
2019-03-28T03:48:34.719Z,88.19
2019-03-28T03:51:03.110Z,88.03
2019-03-28T03:53:31.537Z,88.08
2019-03-28T03:55:59.944Z,88.51
2019-03-28T03:58:28.367Z,89.19
2019-03-28T04:00:56.771Z,88.88
2019-03-28T04:03:25.264Z,89.06
2019-03-28T04:05:53.676Z,89.23
2019-03-28T04:08:22.092Z,89.23
2019-03-28T04:10:50.488Z,89.09
2019-03-28T04:13:18.887Z,88.80
2019-03-28T04:15:47.472Z,88.60
2019-03-28T04:18:15.881Z,88.52
2019-03-28T04:20:44.302Z,88.58
2019-03-28T04:23:12.723Z,88.63
2019-03-28T04:25:41.111Z,88.59
2019-03-28T04:28:09.528Z,88.78
2019-03-28T04:30:37.925Z,88.74
2019-03-28T04:33:06.333Z,88.71
2019-03-28T04:35:34.807Z,88.89
2019-03-28T04:38:03.227Z,88.92
2019-03-28T04:40:31.622Z,88.77
2019-03-28T04:43:00.068Z,88.39
2019-03-28T04:45:28.429Z,88.54
2019-03-28T04:47:56.837Z,88.35
2019-03-28T04:50:25.261Z,88.29
2019-03-28T04:52:54.138Z,88.33
2019-03-28T04:55:22.535Z,88.28
2019-03-28T04:57:50.966Z,88.14
2019-03-28T05:00:19.700Z,88.14
2019-03-28T05:02:48.129Z,87.75
2019-03-28T05:05:16.572Z,88.06
2019-03-28T05:07:44.986Z,88.40
2019-03-28T05:10:13.524Z,88.84
2019-03-28T05:12:42.064Z,88.74
2019-03-28T05:15:11.221Z,88.98
2019-03-28T05:17:40.408Z,89.14
2019-03-28T05:20:09.363Z,89.04
2019-03-28T05:22:37.857Z,89.06
2019-03-28T05:25:07.438Z,89.20
2019-03-28T05:27:35.840Z,89.42
2019-03-28T05:30:11.298Z,89.36
2019-03-28T05:32:39.788Z,89.40
2019-03-28T05:35:08.347Z,89.04
2019-03-28T05:37:36.745Z,88.97
2019-03-28T05:40:07.101Z,89.11
2019-03-28T05:42:35.501Z,89.34
2019-03-28T05:45:07.455Z,89.40
2019-03-28T05:47:35.864Z,89.44
2019-03-28T05:50:06.312Z,89.51
2019-03-28T05:52:34.801Z,89.43
2019-03-28T05:55:05.338Z,89.38
2019-03-28T05:57:33.412Z,89.32
2019-03-28T06:00:01.841Z,89.17
2019-03-28T06:02:30.245Z,88.77
2019-03-28T06:04:58.662Z,89.17
2019-03-28T06:07:27.081Z,88.45
2019-03-28T06:09:55.483Z,88.61
2019-03-28T06:12:23.897Z,88.48
2019-03-28T06:14:52.321Z,88.68
2019-03-28T06:17:20.760Z,88.30
2019-03-28T06:19:49.245Z,87.92
2019-03-28T06:22:17.669Z,87.52
2019-03-28T06:24:46.132Z,87.17
2019-03-28T06:27:14.519Z,86.94
2019-03-28T06:29:42.946Z,86.74
2019-03-28T06:32:11.369Z,86.52
2019-03-28T06:34:39.815Z,85.89
2019-03-28T06:37:08.315Z,86.06
2019-03-28T06:39:36.734Z,85.27
2019-03-28T06:42:05.116Z,85.33
2019-03-28T06:44:33.529Z,85.56
2019-03-28T06:47:01.930Z,84.51
2019-03-28T06:49:30.361Z,84.30
2019-03-28T06:51:58.803Z,83.99
2019-03-28T06:54:27.184Z,84.23
2019-03-28T06:56:55.589Z,83.60
2019-03-28T06:59:36.226Z,83.87
2019-03-28T07:01:54.370Z,84.14
2019-03-28T07:04:22.779Z,83.94
2019-03-28T07:06:51.199Z,83.45
2019-03-28T07:09:19.600Z,82.79
2019-03-28T07:11:48.016Z,82.92
2019-03-28T07:14:16.490Z,82.69
2019-03-28T07:16:44.928Z,83.19
2019-03-28T07:19:13.405Z,82.96
2019-03-28T07:21:41.876Z,83.09
2019-03-28T07:24:10.429Z,81.98
2019-03-28T07:26:38.903Z,82.41
2019-03-28T07:29:07.356Z,82.23
2019-03-28T07:31:35.821Z,82.22
2019-03-28T07:34:04.268Z,81.57
2019-03-28T07:36:32.702Z,81.04
2019-03-28T07:39:02.014Z,81.17
2019-03-28T07:41:30.433Z,81.22
2019-03-28T07:43:58.883Z,81.04
2019-03-28T07:46:27.389Z,80.92
2019-03-28T07:48:55.778Z,80.82
2019-03-28T07:51:24.296Z,80.43
2019-03-28T07:53:52.791Z,80.65
2019-03-28T07:56:21.227Z,81.02
2019-03-28T07:58:49.737Z,80.50
2019-03-28T08:01:18.367Z,79.63
2019-03-28T08:03:46.778Z,80.24
2019-03-28T08:06:15.344Z,79.94
2019-03-28T08:08:44.279Z,79.77
2019-03-28T08:11:12.980Z,80.55
2019-03-28T08:13:41.470Z,80.14
2019-03-28T08:16:09.897Z,80.44
2019-03-28T08:18:38.323Z,80.44
2019-03-28T08:21:06.832Z,80.58
2019-03-28T08:23:35.591Z,80.87
2019-03-28T08:26:04.280Z,80.89
2019-03-28T08:28:32.725Z,80.73
2019-03-28T08:31:01.126Z,80.53
2019-03-28T08:33:29.715Z,81.31
2019-03-28T08:35:58.612Z,79.87
2019-03-28T08:38:27.551Z,80.67
2019-03-28T08:40:55.990Z,80.42
2019-03-28T08:43:24.412Z,79.78
2019-03-28T08:45:52.854Z,80.10
2019-03-28T08:48:21.327Z,79.83
2019-03-28T08:50:49.826Z,79.92
2019-03-28T08:53:18.297Z,80.16
2019-03-28T08:55:46.783Z,79.65
2019-03-28T08:58:15.157Z,79.86
2019-03-28T09:00:51.530Z,79.90
2019-03-28T09:03:13.882Z,80.08
2019-03-28T09:05:42.432Z,79.97
2019-03-28T09:08:10.940Z,79.88
2019-03-28T09:10:39.328Z,79.83
2019-03-28T09:13:07.870Z,79.91
2019-03-28T09:15:43.539Z,79.98
2019-03-28T09:18:06.618Z,79.57
2019-03-28T09:20:35.134Z,79.91
2019-03-28T09:23:03.651Z,79.06
2019-03-28T09:25:32.087Z,78.89
2019-03-28T09:28:00.504Z,78.96
2019-03-28T09:30:47.642Z,79.01
2019-03-28T09:33:05.530Z,79.04
2019-03-28T09:35:34.121Z,79.60
2019-03-28T09:38:02.665Z,79.73
2019-03-28T09:40:31.096Z,79.10
2019-03-28T09:42:59.672Z,79.02
2019-03-28T09:45:28.273Z,78.59
2019-03-28T09:47:56.775Z,78.58
2019-03-28T09:50:25.255Z,78.22
2019-03-28T09:52:54.170Z,78.14
2019-03-28T09:55:22.784Z,77.37
2019-03-28T09:57:51.206Z,78.42
2019-03-28T10:00:21.182Z,77.81
2019-03-28T10:02:49.609Z,77.87
2019-03-28T10:05:18.018Z,76.92
2019-03-28T10:07:46.444Z,76.96
2019-03-28T10:10:15.024Z,76.76
2019-03-28T10:12:44.234Z,76.81
2019-03-28T10:15:13.087Z,76.29
2019-03-28T10:17:42.550Z,75.90
2019-03-28T10:20:11.201Z,75.98
2019-03-28T10:22:39.705Z,75.97
2019-03-28T10:25:12.283Z,76.16
2019-03-28T10:27:39.030Z,75.75
2019-03-28T10:30:09.693Z,75.35
2019-03-28T10:32:38.221Z,75.53
2019-03-28T10:35:07.262Z,75.07
2019-03-28T10:37:35.911Z,75.25
2019-03-28T10:40:06.985Z,74.58
2019-03-28T10:42:35.470Z,73.91
2019-03-28T10:45:05.331Z,73.79
2019-03-28T10:47:33.746Z,73.13
2019-03-28T10:50:04.249Z,73.29
2019-03-28T10:52:32.392Z,72.95
2019-03-28T10:55:00.796Z,72.99
2019-03-28T10:57:30.351Z,73.43
2019-03-28T10:59:59.438Z,72.88
2019-03-28T11:02:28.976Z,71.95
2019-03-28T11:04:57.572Z,71.46
2019-03-28T11:07:25.975Z,71.00
2019-03-28T11:09:54.417Z,70.72
2019-03-28T11:12:22.852Z,70.87
2019-03-28T11:14:51.264Z,71.00
2019-03-28T11:17:19.685Z,70.11
2019-03-28T11:19:48.086Z,68.17
2019-03-28T11:22:16.518Z,69.43
2019-03-28T11:24:46.496Z,68.57
2019-03-28T11:27:15.098Z,68.16
2019-03-28T11:29:43.501Z,67.77
2019-03-28T11:32:11.937Z,68.04
2019-03-28T11:34:40.902Z,67.07
2019-03-28T11:37:19.971Z,66.70
2019-03-28T11:39:39.835Z,67.70
2019-03-28T11:42:08.348Z,67.18
2019-03-28T11:44:36.735Z,67.26
2019-03-28T11:47:05.224Z,67.84
2019-03-28T11:49:33.717Z,67.75
2019-03-28T11:52:02.254Z,67.76
2019-03-28T11:54:30.698Z,67.84
2019-03-28T11:56:59.123Z,67.98
2019-03-28T11:59:27.544Z,68.57
2019-03-28T12:02:00.574Z,69.02
2019-03-28T12:04:26.200Z,68.88
2019-03-28T12:06:54.620Z,67.57
2019-03-28T12:09:23.046Z,65.78
2019-03-28T12:11:53.058Z,66.22
2019-03-28T12:14:21.719Z,66.11
2019-03-28T12:16:50.133Z,67.18
2019-03-28T12:19:18.627Z,67.05
2019-03-28T12:21:47.009Z,65.70
2019-03-28T12:24:15.497Z,66.38
2019-03-28T12:26:44.062Z,67.12
2019-03-28T12:29:12.587Z,64.86
2019-03-28T12:31:41.064Z,64.93
2019-03-28T12:34:09.543Z,65.10
2019-03-28T12:36:38.002Z,64.64
2019-03-28T12:39:06.985Z,64.86
2019-03-28T12:41:35.426Z,65.54
2019-03-28T12:44:03.925Z,65.16
2019-03-28T12:46:32.319Z,63.97
2019-03-28T12:49:00.778Z,64.48
2019-03-28T12:51:29.183Z,64.67
2019-03-28T12:53:57.626Z,63.98
2019-03-28T12:56:26.467Z,63.94
2019-03-28T12:58:55.061Z,60.26
2019-03-28T13:01:24.509Z,59.79
2019-03-28T13:03:52.993Z,59.83
2019-03-28T13:06:21.397Z,60.84
2019-03-28T13:08:49.810Z,60.65
2019-03-28T13:11:18.272Z,61.61
2019-03-28T13:13:46.698Z,63.74
2019-03-28T13:16:15.146Z,63.46
2019-03-28T13:18:43.582Z,63.24
2019-03-28T13:21:13.852Z,62.35
2019-03-28T13:23:42.158Z,60.87
2019-03-28T13:26:10.653Z,59.76
2019-03-28T13:28:39.080Z,60.76
2019-03-28T13:31:07.574Z,61.98
2019-03-28T13:33:36.000Z,59.27
2019-03-28T13:36:04.403Z,60.87
2019-03-28T13:38:32.829Z,59.94
2019-03-28T13:41:01.239Z,60.02
2019-03-28T13:43:30.670Z,60.79
2019-03-28T13:45:59.123Z,60.82
2019-03-28T13:48:27.531Z,60.63
2019-03-28T13:50:55.977Z,62.99
2019-03-28T13:53:38.009Z,63.69
2019-03-28T13:55:54.664Z,64.30
2019-03-28T13:58:23.067Z,65.11
2019-03-28T14:00:54.415Z,65.24
2019-03-28T14:03:21.759Z,66.64
2019-03-28T14:05:50.254Z,65.99
2019-03-28T14:08:18.670Z,66.27
2019-03-28T14:10:47.176Z,66.52
2019-03-28T14:13:15.578Z,65.44
2019-03-28T14:15:44.005Z,65.25
2019-03-28T14:18:12.449Z,65.45
2019-03-28T14:20:40.850Z,65.60
2019-03-28T14:23:09.264Z,64.50
2019-03-28T14:25:37.703Z,65.35
2019-03-28T14:28:06.235Z,63.77
2019-03-28T14:30:34.630Z,63.83
2019-03-28T14:33:11.056Z,64.59
2019-03-28T14:35:33.190Z,63.84
2019-03-28T14:38:01.587Z,63.99
2019-03-28T14:40:30.004Z,64.55
2019-03-28T14:42:58.479Z,63.95
2019-03-28T14:45:26.971Z,64.65
2019-03-28T14:47:55.399Z,63.13
2019-03-28T14:50:35.623Z,64.44
2019-03-28T14:53:04.581Z,65.39
2019-03-28T14:55:35.216Z,63.60
2019-03-28T14:58:09.460Z,63.83
2019-03-28T15:00:48.857Z,63.61
2019-03-28T15:03:26.345Z,64.17
2019-03-28T15:05:48.090Z,62.77
2019-03-28T15:08:16.572Z,63.52
2019-03-28T15:10:45.117Z,62.68
2019-03-28T15:13:13.648Z,63.75
2019-03-28T15:15:42.099Z,64.17
2019-03-28T15:18:10.546Z,62.90
2019-03-28T15:20:38.996Z,64.10
2019-03-28T15:23:07.502Z,64.03
2019-03-28T15:25:36.027Z,64.01
2019-03-28T15:28:04.537Z,63.71
2019-03-28T15:30:32.956Z,63.34
2019-03-28T15:33:01.401Z,63.30
2019-03-28T15:35:29.830Z,64.58
2019-03-28T15:37:58.263Z,64.12
2019-03-28T15:40:26.871Z,64.12
2019-03-28T15:42:55.388Z,63.74
2019-03-28T15:45:24.023Z,63.78
2019-03-28T15:47:52.447Z,64.92
2019-03-28T15:50:20.906Z,63.99
2019-03-28T15:52:49.411Z,63.59
2019-03-28T15:55:17.903Z,63.52
2019-03-28T15:57:46.401Z,63.59
2019-03-28T16:00:15.381Z,64.88
2019-03-28T16:02:43.806Z,64.36
2019-03-28T16:05:12.303Z,63.31
2019-03-28T16:07:41.095Z,64.27
2019-03-28T16:10:10.155Z,64.04
2019-03-28T16:12:38.650Z,62.80
2019-03-28T16:15:08.124Z,64.12
2019-03-28T16:17:36.608Z,63.35
2019-03-28T16:20:07.196Z,64.14
2019-03-28T16:22:35.642Z,64.54
2019-03-28T16:25:05.627Z,65.49
2019-03-28T16:27:34.007Z,64.02
2019-03-28T16:30:02.542Z,65.07
2019-03-28T16:32:30.962Z,65.32
2019-03-28T16:34:59.378Z,62.75
2019-03-28T16:37:27.964Z,62.82
2019-03-28T16:39:56.513Z,63.34
2019-03-28T16:42:24.948Z,63.72
2019-03-28T16:44:53.358Z,62.78
2019-03-28T16:47:21.760Z,64.06
2019-03-28T16:49:50.323Z,63.67
2019-03-28T16:52:18.741Z,63.63
2019-03-28T16:54:47.212Z,63.98
2019-03-28T16:57:15.626Z,64.28
2019-03-28T16:59:44.048Z,63.42
2019-03-28T17:02:12.548Z,63.81
2019-03-28T17:04:40.980Z,63.89
2019-03-28T17:07:09.956Z,64.17
2019-03-28T17:09:39.265Z,64.52
2019-03-28T17:12:08.150Z,64.24
2019-03-28T17:14:36.719Z,63.61
2019-03-28T17:17:05.235Z,63.73
2019-03-28T17:19:33.659Z,64.50
2019-03-28T17:22:02.173Z,64.19
2019-03-28T17:24:30.688Z,61.81
2019-03-28T17:26:59.187Z,63.07
2019-03-28T17:29:27.612Z,64.34
2019-03-28T17:31:56.043Z,64.47
2019-03-28T17:34:34.655Z,65.54
2019-03-28T17:36:54.597Z,65.44
2019-03-28T17:39:23.032Z,65.87
2019-03-28T17:41:51.529Z,65.97
2019-03-28T17:44:19.972Z,66.46
2019-03-28T17:46:48.395Z,65.78
2019-03-28T17:49:16.807Z,66.17
2019-03-28T17:51:45.337Z,66.10
2019-03-28T17:54:13.757Z,66.80
2019-03-28T17:56:42.263Z,66.22
2019-03-28T17:59:10.770Z,65.10
2019-03-28T18:01:39.211Z,65.55
2019-03-28T18:04:07.672Z,64.24
2019-03-28T18:06:36.191Z,65.47
2019-03-28T18:09:07.048Z,65.57
2019-03-28T18:11:35.481Z,64.98
2019-03-28T18:14:04.561Z,65.54
2019-03-28T18:16:34.106Z,66.06
2019-03-28T18:19:02.563Z,66.57
2019-03-28T18:21:30.982Z,65.58
2019-03-28T18:23:59.418Z,66.13
2019-03-28T18:26:27.982Z,66.31
2019-03-28T18:28:56.390Z,66.43
2019-03-28T18:31:24.819Z,66.84
2019-03-28T18:33:53.252Z,66.01
2019-03-28T18:36:21.734Z,66.33
2019-03-28T18:38:52.483Z,67.98
2019-03-28T18:41:20.327Z,68.07
2019-03-28T18:43:49.746Z,68.26
2019-03-28T18:46:18.448Z,69.19
2019-03-28T18:48:46.978Z,68.71
2019-03-28T18:51:15.463Z,68.54
2019-03-28T18:53:43.871Z,68.27
2019-03-28T18:56:12.385Z,69.01
2019-03-28T18:58:40.810Z,69.38
2019-03-28T19:01:09.347Z,69.51
2019-03-28T19:03:37.806Z,69.28
2019-03-28T19:06:06.372Z,69.78
2019-03-28T19:08:34.867Z,70.36
2019-03-28T19:11:04.006Z,69.95
2019-03-28T19:13:32.673Z,70.99
2019-03-28T19:16:01.296Z,71.28
2019-03-28T19:18:29.738Z,70.61
2019-03-28T19:20:58.149Z,71.12
2019-03-28T19:23:26.613Z,70.36
2019-03-28T19:25:55.087Z,70.22
2019-03-28T19:28:29.243Z,70.69
2019-03-28T19:30:53.693Z,69.99
2019-03-28T19:33:22.128Z,71.01
2019-03-28T19:35:51.282Z,70.81
2019-03-28T19:38:19.806Z,72.08
2019-03-28T19:40:48.359Z,72.43
2019-03-28T19:43:20.947Z,72.37
2019-03-28T19:45:47.280Z,72.52
2019-03-28T19:48:15.725Z,73.02
2019-03-28T19:50:44.151Z,72.68
2019-03-28T19:53:12.564Z,72.94
2019-03-28T19:55:41.007Z,72.52
2019-03-28T19:58:09.481Z,72.15
2019-03-28T20:00:37.969Z,73.20
2019-03-28T20:03:06.470Z,73.34
2019-03-28T20:05:46.735Z,72.98
2019-03-28T20:08:15.422Z,73.83
2019-03-28T20:10:35.546Z,73.82
2019-03-28T20:13:05.417Z,74.79
2019-03-28T20:15:34.199Z,75.86
2019-03-28T20:18:02.708Z,76.83
2019-03-28T20:20:31.218Z,77.54
2019-03-28T20:22:59.724Z,77.01
2019-03-28T20:25:28.316Z,77.12
2019-03-28T20:27:56.772Z,77.02
2019-03-28T20:30:25.323Z,77.19
2019-03-28T20:32:53.834Z,77.19
2019-03-28T20:35:22.354Z,77.79
2019-03-28T20:37:50.817Z,77.94
2019-03-28T20:40:20.061Z,78.37
2019-03-28T20:42:48.543Z,79.19
2019-03-28T20:45:18.538Z,79.56
2019-03-28T20:47:46.973Z,80.11
2019-03-28T20:50:17.215Z,80.22
2019-03-28T20:52:45.726Z,80.09
2019-03-28T20:55:14.292Z,79.88
2019-03-28T20:57:42.728Z,80.28
2019-03-28T21:00:12.912Z,80.57
2019-03-28T21:02:41.738Z,80.89
2019-03-28T21:05:10.704Z,80.54
2019-03-28T21:07:39.279Z,80.31
2019-03-28T21:10:09.804Z,80.98
2019-03-28T21:12:38.221Z,81.50
2019-03-28T21:15:08.103Z,81.56
2019-03-28T21:17:36.554Z,81.69
2019-03-28T21:20:06.862Z,81.21
2019-03-28T21:22:35.254Z,81.61
2019-03-28T21:25:04.899Z,81.33
2019-03-28T21:27:33.369Z,81.21
2019-03-28T21:30:01.736Z,80.15
2019-03-28T21:32:30.178Z,80.54
2019-03-28T21:34:58.649Z,80.72
2019-03-28T21:37:27.084Z,80.99
2019-03-28T21:39:55.477Z,81.59
2019-03-28T21:42:23.962Z,81.11
2019-03-28T21:44:52.415Z,81.55
2019-03-28T21:47:20.861Z,81.35
2019-03-28T21:49:49.388Z,81.76
2019-03-28T21:52:17.817Z,81.48
2019-03-28T21:54:46.233Z,81.58
2019-03-28T21:57:14.882Z,81.81
2019-03-28T21:59:43.290Z,81.42
2019-03-28T22:02:11.742Z,81.87
2019-03-28T22:04:40.157Z,81.53
2019-03-28T22:07:08.594Z,81.87
2019-03-28T22:09:39.614Z,81.22
2019-03-28T22:12:07.222Z,81.61
2019-03-28T22:14:35.630Z,82.22
2019-03-28T22:17:04.042Z,82.79
2019-03-28T22:19:32.461Z,82.92
2019-03-28T22:22:01.949Z,82.60
2019-03-28T22:24:30.789Z,82.45
2019-03-28T22:26:59.223Z,82.00
2019-03-28T22:29:27.711Z,82.31
2019-03-28T22:31:56.809Z,82.37
2019-03-28T22:34:25.480Z,82.32
2019-03-28T22:36:57.561Z,82.27
2019-03-28T22:39:24.013Z,82.43
2019-03-28T22:41:52.427Z,82.16
2019-03-28T22:44:20.893Z,82.11
2019-03-28T22:46:49.311Z,82.53
2019-03-28T22:49:17.750Z,82.82
2019-03-28T22:51:46.172Z,83.27
2019-03-28T22:54:14.587Z,83.56
2019-03-28T22:56:43.090Z,83.51
2019-03-28T22:59:11.496Z,83.92
2019-03-28T23:01:39.966Z,83.97
2019-03-28T23:04:08.474Z,83.76
2019-03-28T23:06:36.897Z,84.31
2019-03-28T23:09:06.849Z,84.00
2019-03-28T23:11:35.296Z,83.91
2019-03-28T23:14:03.848Z,83.89
2019-03-28T23:16:32.256Z,83.94
2019-03-28T23:19:00.838Z,83.31
2019-03-28T23:21:29.249Z,83.30
2019-03-28T23:23:57.654Z,83.10
2019-03-28T23:26:26.085Z,83.11
2019-03-28T23:28:54.482Z,83.69
2019-03-28T23:31:22.897Z,84.22
2019-03-28T23:33:51.315Z,84.47
2019-03-28T23:36:19.727Z,84.08
2019-03-28T23:38:48.134Z,83.27
2019-03-28T23:41:16.553Z,83.73
2019-03-28T23:43:45.034Z,83.89
2019-03-28T23:46:13.429Z,83.67
2019-03-28T23:48:41.851Z,83.92
2019-03-28T23:51:10.280Z,83.70
2019-03-28T23:53:39.260Z,84.34
2019-03-28T23:56:07.681Z,83.91
2019-03-28T23:58:36.549Z,83.99
